createdAt,value
2022-10-16T00:01:46.847Z,100363.69
2022-10-16T00:03:52.154Z,100363.45
2022-10-16T00:05:57.558Z,100364.52
2022-10-16T00:08:02.691Z,100369.05
2022-10-16T00:10:08.181Z,100369.3
2022-10-16T00:12:13.111Z,100367.13
2022-10-16T00:14:18.386Z,100365.27
2022-10-16T00:16:23.681Z,100365.19
2022-10-16T00:18:28.916Z,100356.52
2022-10-16T00:20:34.111Z,100357.54
2022-10-16T00:22:39.186Z,100359.38
2022-10-16T00:24:44.613Z,100359.25
2022-10-16T00:26:50.030Z,100361.03
2022-10-16T00:28:55.430Z,100362.17
2022-10-16T00:31:01.317Z,100362.14
2022-10-16T00:33:07.754Z,100356.42
2022-10-16T00:35:13.124Z,100360.23
2022-10-16T00:37:18.558Z,100360.8
2022-10-16T00:39:24.149Z,100367
2022-10-16T00:41:29.313Z,100370.83
2022-10-16T00:43:34.464Z,100367.86
2022-10-16T00:45:39.836Z,100370.17
2022-10-16T00:47:44.829Z,100366.81
2022-10-16T00:49:50.072Z,100364.49
2022-10-16T00:51:55.103Z,100369.98
2022-10-16T00:54:00.377Z,100374.28
2022-10-16T00:56:05.665Z,100380.11
2022-10-16T00:58:11.071Z,100381.47
2022-10-16T01:00:16.471Z,100374.16
2022-10-16T01:02:21.977Z,100379.41
2022-10-16T01:04:28.361Z,100381.69
2022-10-16T01:06:33.492Z,100386.14
2022-10-16T01:08:39.162Z,100382.61
2022-10-16T01:10:47.444Z,100385.16
2022-10-16T01:12:52.591Z,100384.73
2022-10-16T01:14:57.818Z,100385.1
2022-10-16T01:17:02.932Z,100387.17
2022-10-16T01:19:09.225Z,100385.32
2022-10-16T01:21:14.359Z,100384.47
2022-10-16T01:23:19.693Z,100385.48
2022-10-16T01:25:25.118Z,100383.64
2022-10-16T01:27:30.974Z,100380.91
2022-10-16T01:29:36.117Z,100384.38
2022-10-16T01:31:41.166Z,100387.91
2022-10-16T01:33:46.747Z,100387.09
2022-10-16T01:35:52.038Z,100388.4
2022-10-16T01:37:57.241Z,100394.06
2022-10-16T01:40:02.394Z,100400.48
2022-10-16T01:42:07.521Z,100402.95
2022-10-16T01:44:12.596Z,100403.51
2022-10-16T01:46:17.701Z,100403.79
2022-10-16T01:48:25.917Z,100403.86
2022-10-16T01:50:31.248Z,100397.3
2022-10-16T01:52:36.457Z,100397
2022-10-16T01:54:41.765Z,100397.09
2022-10-16T01:56:47.082Z,100393.29
2022-10-16T01:58:52.299Z,100392.16
2022-10-16T02:00:57.711Z,100388.14
2022-10-16T02:03:03.532Z,100385.36
2022-10-16T02:05:09.700Z,100388.31
2022-10-16T02:07:15.097Z,100385.98
2022-10-16T02:09:20.179Z,100387.59
2022-10-16T02:11:25.422Z,100384.46
2022-10-16T02:13:30.812Z,100384.48
2022-10-16T02:15:36.505Z,100388.05
2022-10-16T02:17:44.449Z,100382.66
2022-10-16T02:19:49.883Z,100387.51
2022-10-16T02:21:55.156Z,100390.25
2022-10-16T02:24:00.623Z,100393.42
2022-10-16T02:26:06.963Z,100395.41
2022-10-16T02:28:12.118Z,100394.75
2022-10-16T02:30:17.130Z,100394.97
2022-10-16T02:32:22.676Z,100397.29
2022-10-16T02:34:30.476Z,100396.43
2022-10-16T02:36:35.538Z,100398.05
2022-10-16T02:38:40.708Z,100396.75
2022-10-16T02:40:45.942Z,100396.45
2022-10-16T02:42:51.757Z,100402.16
2022-10-16T02:44:57.041Z,100403.06
2022-10-16T02:47:02.902Z,100401.98
2022-10-16T02:49:08.353Z,100402.73
2022-10-16T02:51:13.591Z,100401.59
2022-10-16T02:53:18.845Z,100410.68
2022-10-16T02:55:23.949Z,100407.08
2022-10-16T02:57:30.014Z,100409.23
2022-10-16T02:59:35.172Z,100410.25
2022-10-16T03:01:40.726Z,100405.97
2022-10-16T03:03:45.707Z,100405.08
2022-10-16T03:05:50.902Z,100408.23
2022-10-16T03:07:56.174Z,100413.75
2022-10-16T03:10:01.433Z,100416.27
2022-10-16T03:12:06.479Z,100412.34
2022-10-16T03:14:11.795Z,100413.17
2022-10-16T03:16:17.019Z,100416
2022-10-16T03:18:22.142Z,100417.05
2022-10-16T03:20:27.359Z,100419.36
2022-10-16T03:22:32.535Z,100418.68
2022-10-16T03:24:37.627Z,100418.11
2022-10-16T03:26:42.917Z,100425.74
2022-10-16T03:28:48.323Z,100429.38
2022-10-16T03:30:53.798Z,100431.03
2022-10-16T03:32:59.198Z,100431.47
2022-10-16T03:35:04.379Z,100429.46
2022-10-16T03:37:09.382Z,100433.26
2022-10-16T03:39:14.850Z,100437.83
2022-10-16T03:41:20.030Z,100441.65
2022-10-16T03:43:25.127Z,100440.56
2022-10-16T03:45:30.172Z,100442.28
2022-10-16T03:47:35.259Z,100443.13
2022-10-16T03:49:40.397Z,100440.05
2022-10-16T03:51:45.653Z,100438.13
2022-10-16T03:53:50.708Z,100437.3
2022-10-16T03:55:56.066Z,100438.98
2022-10-16T03:58:01.117Z,100439.8
2022-10-16T04:00:06.656Z,100441.77
2022-10-16T04:02:11.712Z,100444.2
2022-10-16T04:04:17.105Z,100447.51
2022-10-16T04:06:23.380Z,100446.31
2022-10-16T04:08:28.547Z,100448.31
2022-10-16T04:10:33.852Z,100449.89
2022-10-16T04:12:39.429Z,100451.95
2022-10-16T04:14:45.566Z,100449.63
2022-10-16T04:16:50.749Z,100455.07
2022-10-16T04:18:55.805Z,100451.41
2022-10-16T04:21:01.161Z,100454.17
2022-10-16T04:23:06.252Z,100456.95
2022-10-16T04:25:11.295Z,100452.77
2022-10-16T04:27:17.719Z,100456.59
2022-10-16T04:29:22.996Z,100465.34
2022-10-16T04:31:28.083Z,100469.55
2022-10-16T04:33:33.320Z,100474.19
2022-10-16T04:35:39.568Z,100476.69
2022-10-16T04:37:44.856Z,100480.59
2022-10-16T04:39:49.766Z,100481.2
2022-10-16T04:41:54.941Z,100481.53
2022-10-16T04:44:00.205Z,100482.94
2022-10-16T04:46:05.447Z,100480.73
2022-10-16T04:48:10.449Z,100475.92
2022-10-16T04:50:15.498Z,100478.28
2022-10-16T04:52:20.525Z,100487.38
2022-10-16T04:54:26.176Z,100489.42
2022-10-16T04:56:31.456Z,100494.55
2022-10-16T04:58:36.664Z,100493.83
2022-10-16T05:00:41.879Z,100499.17
2022-10-16T05:02:47.278Z,100495.8
2022-10-16T05:04:52.872Z,100497.85
2022-10-16T05:06:58.007Z,100502.7
2022-10-16T05:09:03.241Z,100505.27
2022-10-16T05:11:08.335Z,100505.86
2022-10-16T05:13:13.730Z,100509.31
2022-10-16T05:15:18.857Z,100508.75
2022-10-16T05:17:25.979Z,100509.39
2022-10-16T05:19:32.906Z,100514.25
2022-10-16T05:21:38.085Z,100517.07
2022-10-16T05:23:43.651Z,100513.59
2022-10-16T05:25:48.785Z,100519.47
2022-10-16T05:27:54.477Z,100520.28
2022-10-16T05:30:00.260Z,100516.39
2022-10-16T05:32:06.027Z,100519.03
2022-10-16T05:34:12.106Z,100519.72
2022-10-16T05:36:17.330Z,100520.38
2022-10-16T05:38:22.467Z,100520.73
2022-10-16T05:40:28.110Z,100514.39
2022-10-16T05:42:33.733Z,100512.66
2022-10-16T05:44:39.712Z,100514.26
2022-10-16T05:46:45.633Z,100511.44
2022-10-16T05:48:51.391Z,100520.66
2022-10-16T05:50:57.430Z,100525.63
2022-10-16T05:53:03.318Z,100526.39
2022-10-16T05:55:09.461Z,100524.59
2022-10-16T05:57:15.218Z,100520.77
2022-10-16T05:59:21.403Z,100516.53
2022-10-16T06:01:27.496Z,100521.34
2022-10-16T06:03:32.930Z,100532.83
2022-10-16T06:05:38.170Z,100536.36
2022-10-16T06:07:46.837Z,100538.34
2022-10-16T06:09:52.459Z,100536.61
2022-10-16T06:11:57.896Z,100528.66
2022-10-16T06:14:03.521Z,100534.98
2022-10-16T06:16:09.738Z,100535.86
2022-10-16T06:18:16.150Z,100531.95
2022-10-16T06:20:22.897Z,100532.93
2022-10-16T06:22:28.135Z,100526.9
2022-10-16T06:24:33.510Z,100523.45
2022-10-16T06:26:39.435Z,100523.63
2022-10-16T06:28:45.262Z,100532.59
2022-10-16T06:30:51.582Z,100530.95
2022-10-16T06:32:57.423Z,100534.98
2022-10-16T06:35:04.002Z,100536.14
2022-10-16T06:37:09.734Z,100536.8
2022-10-16T06:39:15.522Z,100539.16
2022-10-16T06:41:21.628Z,100543.01
2022-10-16T06:43:28.114Z,100544.52
2022-10-16T06:45:34.322Z,100546.95
2022-10-16T06:47:40.771Z,100549.65
2022-10-16T06:49:53.618Z,100555.25
2022-10-16T06:52:00.615Z,100548.98
2022-10-16T06:54:06.793Z,100548.68
2022-10-16T06:56:13.601Z,100557.05
2022-10-16T06:58:20.847Z,100553.88
2022-10-16T07:00:27.171Z,100556.12
2022-10-16T07:02:33.972Z,100566.97
2022-10-16T07:04:40.109Z,100573.43
2022-10-16T07:06:46.620Z,100578.05
2022-10-16T07:08:52.979Z,100576.05
2022-10-16T07:10:59.302Z,100576.48
2022-10-16T07:13:06.582Z,100575.44
2022-10-16T07:15:13.407Z,100576
2022-10-16T07:17:19.903Z,100575.33
2022-10-16T07:19:27.494Z,100575.73
2022-10-16T07:21:39.343Z,100578.15
2022-10-16T07:23:45.788Z,100568.42
2022-10-16T07:25:51.827Z,100553.72
2022-10-16T07:27:59.097Z,100557.84
2022-10-16T07:30:09.677Z,100570.78
2022-10-16T07:32:16.270Z,100566.1
2022-10-16T07:34:22.928Z,100560.92
2022-10-16T07:36:29.465Z,100562.41
2022-10-16T07:38:36.444Z,100565.56
2022-10-16T07:40:42.470Z,100566.65
2022-10-16T07:42:48.783Z,100577.34
2022-10-16T07:44:55.505Z,100572.5
2022-10-16T07:47:01.713Z,100571.13
2022-10-16T07:49:07.738Z,100580.31
2022-10-16T07:51:14.745Z,100591.92
2022-10-16T07:53:27.129Z,100587.28
2022-10-16T07:55:33.918Z,100581.88
2022-10-16T07:57:40.366Z,100589.55
2022-10-16T07:59:46.777Z,100591.61
2022-10-16T08:01:56.155Z,100581.84
2022-10-16T08:04:02.867Z,100580.53
2022-10-16T08:06:09.069Z,100578.23
2022-10-16T08:08:15.491Z,100580.93
2022-10-16T08:10:21.709Z,100592.75
2022-10-16T08:12:28.473Z,100589.48
2022-10-16T08:14:35.925Z,100586.45
2022-10-16T08:16:42.237Z,100583.92
2022-10-16T08:18:48.995Z,100587.72
2022-10-16T08:20:56.051Z,100589.12
2022-10-16T08:23:02.386Z,100598.45
2022-10-16T08:25:09.192Z,100596.91
2022-10-16T08:27:17.464Z,100595.16
2022-10-16T08:29:24.179Z,100596.92
2022-10-16T08:31:30.794Z,100592.69
2022-10-16T08:33:37.221Z,100590.19
2022-10-16T08:35:43.542Z,100593.83
2022-10-16T08:37:49.686Z,100601.13
2022-10-16T08:39:58.431Z,100592.41
2022-10-16T08:42:04.726Z,100594.26
2022-10-16T08:44:11.184Z,100599.78
2022-10-16T08:46:17.755Z,100600.02
2022-10-16T08:48:25.328Z,100597.73
2022-10-16T08:50:31.764Z,100602.8
2022-10-16T08:52:37.912Z,100609.2
2022-10-16T08:54:45.033Z,100612.61
2022-10-16T08:56:52.449Z,100613.91
2022-10-16T08:59:03.887Z,100612.31
2022-10-16T09:01:10.664Z,100621.95
2022-10-16T09:03:17.847Z,100623.3
2022-10-16T09:05:24.834Z,100623.7
2022-10-16T09:07:31.008Z,100622.94
2022-10-16T09:09:37.076Z,100620.06
2022-10-16T09:11:43.476Z,100614.42
2022-10-16T09:13:50.845Z,100625.14
2022-10-16T09:15:58.153Z,100630.31
2022-10-16T09:18:04.772Z,100632.02
2022-10-16T09:20:12.362Z,100623.16
2022-10-16T09:22:19.223Z,100618.67
2022-10-16T09:24:29.502Z,100623.98
2022-10-16T09:26:36.896Z,100622.16
2022-10-16T09:28:44.373Z,100617.63
2022-10-16T09:30:51.458Z,100611.59
2022-10-16T09:32:58.323Z,100607.39
2022-10-16T09:35:06.316Z,100604.72
2022-10-16T09:37:13.058Z,100599.91
2022-10-16T09:39:19.283Z,100592.34
2022-10-16T09:41:25.195Z,100592.35
2022-10-16T09:43:32.161Z,100594.78
2022-10-16T09:45:38.992Z,100597.3
2022-10-16T09:47:48.582Z,100594.43
2022-10-16T09:50:01.821Z,100596.53
2022-10-16T09:52:08.535Z,100600.02
2022-10-16T09:54:15.736Z,100602.39
2022-10-16T09:56:22.995Z,100608.78
2022-10-16T09:58:29.425Z,100609.36
2022-10-16T10:00:37.448Z,100606.17
2022-10-16T10:02:44.488Z,100606.22
2022-10-16T10:04:52.595Z,100612.97
2022-10-16T10:07:00.290Z,100610.83
2022-10-16T10:09:07.895Z,100605.51
2022-10-16T10:11:17.586Z,100598.98
2022-10-16T10:13:24.545Z,100602.27
2022-10-16T10:15:31.318Z,100604.14
2022-10-16T10:17:37.849Z,100604.41
2022-10-16T10:19:45.600Z,100603.43
2022-10-16T10:21:52.394Z,100605.27
2022-10-16T10:24:01.999Z,100605.15
2022-10-16T10:26:10.417Z,100608.97
2022-10-16T10:28:17.106Z,100606.19
2022-10-16T10:30:24.062Z,100607.11
2022-10-16T10:32:32.570Z,100601.27
2022-10-16T10:34:39.884Z,100603.05
2022-10-16T10:36:46.571Z,100599.4
2022-10-16T10:38:55.443Z,100598.68
2022-10-16T10:41:02.231Z,100602.44
2022-10-16T10:43:10.001Z,100596.55
2022-10-16T10:45:17.076Z,100604.27
2022-10-16T10:47:24.572Z,100606.39
2022-10-16T10:49:33.100Z,100594.48
2022-10-16T10:51:40.377Z,100600.77
2022-10-16T10:53:46.868Z,100597.29
2022-10-16T10:55:53.450Z,100599.61
2022-10-16T10:58:00.725Z,100597.02
2022-10-16T11:00:07.576Z,100601.56
2022-10-16T11:02:14.299Z,100597.16
2022-10-16T11:04:22.189Z,100601.7
2022-10-16T11:06:29.058Z,100598.68
2022-10-16T11:08:35.975Z,100598.6
2022-10-16T11:10:42.827Z,100594.17
2022-10-16T11:12:49.474Z,100592.16
2022-10-16T11:14:57.187Z,100587.38
2022-10-16T11:17:04.902Z,100586.69
2022-10-16T11:19:11.623Z,100590.63
2022-10-16T11:21:20.382Z,100590.5
2022-10-16T11:23:32.527Z,100591.78
2022-10-16T11:25:39.020Z,100591.75
2022-10-16T11:27:46.062Z,100601.16
2022-10-16T11:29:52.804Z,100610.91
2022-10-16T11:31:59.483Z,100607.91
2022-10-16T11:34:08.167Z,100605.51
2022-10-16T11:36:14.540Z,100603.65
2022-10-16T11:38:21.521Z,100596.63
2022-10-16T11:40:27.962Z,100591.11
2022-10-16T11:42:34.032Z,100596.67
2022-10-16T11:44:40.667Z,100593.25
2022-10-16T11:47:24.677Z,100591.97
2022-10-16T11:50:06.862Z,100598.27
2022-10-16T11:54:20.411Z,100596.05
2022-10-16T11:56:26.906Z,100591.04
2022-10-16T11:58:33.369Z,100604.08
2022-10-16T12:00:39.599Z,100586.39
2022-10-16T12:02:45.928Z,100580.39
2022-10-16T12:04:52.250Z,100576.67
2022-10-16T12:06:58.384Z,100573.3
2022-10-16T12:09:04.663Z,100572.88
2022-10-16T12:11:11.424Z,100570.73
2022-10-16T12:13:17.539Z,100577.28
2022-10-16T12:15:58.561Z,100580.7
2022-10-16T12:18:06.722Z,100580.59
2022-10-16T12:20:13.072Z,100582.84
2022-10-16T12:22:19.467Z,100583.66
2022-10-16T12:24:26.539Z,100591.3
2022-10-16T12:26:32.876Z,100586.32
2022-10-16T12:28:39.464Z,100593.2
2022-10-16T12:30:45.996Z,100596.25
2022-10-16T12:32:53.323Z,100598.03
2022-10-16T12:35:01.217Z,100592.63
2022-10-16T12:37:07.513Z,100590
2022-10-16T12:39:14.501Z,100592.4
2022-10-16T12:41:21.206Z,100598.53
2022-10-16T12:43:31.206Z,100596.66
2022-10-16T12:45:37.531Z,100601.28
2022-10-16T12:47:45.170Z,100599.7
2022-10-16T12:49:52.698Z,100603.87
2022-10-16T12:51:59.511Z,100597.31
2022-10-16T12:54:05.974Z,100601.61
2022-10-16T12:56:12.575Z,100600.44
2022-10-16T12:58:19.336Z,100604.98
2022-10-16T13:00:26.196Z,100609.28
2022-10-16T13:02:32.677Z,100600.78
2022-10-16T13:04:38.853Z,100603.56
2022-10-16T13:06:45.217Z,100606.99
2022-10-16T13:08:51.667Z,100604.69
2022-10-16T13:10:57.960Z,100602.08
2022-10-16T13:13:04.083Z,100602.05
2022-10-16T13:15:10.742Z,100598.55
2022-10-16T13:17:17.429Z,100593.36
2022-10-16T13:19:24.897Z,100598.84
2022-10-16T13:21:30.995Z,100602.89
2022-10-16T13:23:37.496Z,100598.08
2022-10-16T13:25:44.004Z,100596.23
2022-10-16T13:27:50.626Z,100604.69
2022-10-16T13:29:56.701Z,100609.41
2022-10-16T13:32:07.812Z,100618.55
2022-10-16T13:34:14.349Z,100622.3
2022-10-16T13:36:20.618Z,100629.27
2022-10-16T13:38:27.796Z,100629.98
2022-10-16T13:40:34.667Z,100636.73
2022-10-16T13:42:41.085Z,100635.77
2022-10-16T13:44:47.324Z,100636.67
2022-10-16T13:46:53.458Z,100641.15
2022-10-16T13:48:59.836Z,100638.19
2022-10-16T13:51:06.203Z,100632.52
2022-10-16T13:53:12.356Z,100635.66
2022-10-16T13:55:18.860Z,100635.95
2022-10-16T13:57:28.902Z,100637.56
2022-10-16T13:59:35.187Z,100635.88
2022-10-16T14:01:41.550Z,100640.14
2022-10-16T14:03:48.089Z,100635.41
2022-10-16T14:05:54.114Z,100633.42
2022-10-16T14:08:00.427Z,100630.62
2022-10-16T14:10:06.874Z,100628.36
2022-10-16T14:12:13.339Z,100625.81
2022-10-16T14:14:19.688Z,100630.16
2022-10-16T14:16:25.977Z,100627.08
2022-10-16T14:18:36.504Z,100628.3
2022-10-16T14:20:42.769Z,100622.73
2022-10-16T14:22:49.255Z,100627.37
2022-10-16T14:24:55.658Z,100633.17
2022-10-16T14:27:01.926Z,100640.2
2022-10-16T14:29:08.972Z,100639.46
2022-10-16T14:31:15.247Z,100642.8
2022-10-16T14:33:21.973Z,100647.23
2022-10-16T14:35:29.653Z,100651.96
2022-10-16T14:37:36.937Z,100653.33
2022-10-16T14:39:44.845Z,100657.28
2022-10-16T14:41:52.628Z,100655.53
2022-10-16T14:43:59.422Z,100662.2
2022-10-16T14:46:06.644Z,100661.08
2022-10-16T14:48:19.789Z,100661.81
2022-10-16T14:50:28.041Z,100653.32
2022-10-16T14:52:34.965Z,100657.4
2022-10-16T14:54:41.524Z,100652.94
2022-10-16T14:56:48.610Z,100655.41
2022-10-16T14:58:56.000Z,100653.89
2022-10-16T15:01:02.719Z,100654.02
2022-10-16T15:03:10.010Z,100658.56
2022-10-16T15:05:16.536Z,100661.09
2022-10-16T15:07:23.309Z,100661.3
2022-10-16T15:09:32.021Z,100652.41
2022-10-16T15:11:38.858Z,100643.49
2022-10-16T15:13:45.559Z,100646.11
2022-10-16T15:15:52.531Z,100657.11
2022-10-16T15:17:59.167Z,100661.55
2022-10-16T15:20:06.335Z,100661.81
2022-10-16T15:22:13.523Z,100664.48
2022-10-16T15:24:23.133Z,100668.48
2022-10-16T15:26:29.861Z,100672.84
2022-10-16T15:28:36.783Z,100675.22
2022-10-16T15:30:44.012Z,100678.97
2022-10-16T15:32:52.469Z,100687.36
2022-10-16T15:34:59.708Z,100683.55
2022-10-16T15:37:06.279Z,100688.46
2022-10-16T15:39:13.151Z,100684.55
2022-10-16T15:41:19.369Z,100687.41
2022-10-16T15:43:26.289Z,100692.09
2022-10-16T15:45:33.359Z,100688.48
2022-10-16T15:47:45.731Z,100694.34
2022-10-16T15:49:52.515Z,100696.38
2022-10-16T15:51:58.800Z,100697.17
2022-10-16T15:54:05.409Z,100700.8
2022-10-16T15:56:11.812Z,100699.75
2022-10-16T15:58:18.293Z,100706.67
2022-10-16T16:00:24.394Z,100709.02
2022-10-16T16:02:31.363Z,100712.06
2022-10-16T16:04:46.336Z,100718.36
2022-10-16T16:06:53.312Z,100718.98
2022-10-16T16:09:01.135Z,100726.42
2022-10-16T16:11:08.841Z,100731.66
2022-10-16T16:13:15.632Z,100731.21
2022-10-16T16:15:22.426Z,100737.56
2022-10-16T16:17:29.636Z,100739.12
2022-10-16T16:19:35.622Z,100736.91
2022-10-16T16:21:41.730Z,100736.16
2022-10-16T16:23:49.487Z,100739.47
2022-10-16T16:25:56.840Z,100745.78
2022-10-16T16:28:03.312Z,100746
2022-10-16T16:30:09.876Z,100752.63
2022-10-16T16:32:24.939Z,100752.34
2022-10-16T16:34:32.912Z,100756.39
2022-10-16T16:36:40.116Z,100758.09
2022-10-16T16:38:47.309Z,100757.19
2022-10-16T16:40:58.439Z,100759.62
2022-10-16T16:43:05.507Z,100756.03
2022-10-16T16:45:13.816Z,100762.77
2022-10-16T16:47:24.745Z,100766.03
2022-10-16T16:49:33.254Z,100768.26
2022-10-16T16:51:42.303Z,100773.47
2022-10-16T16:53:49.522Z,100777.08
2022-10-16T16:56:02.419Z,100777.97
2022-10-16T16:58:15.185Z,100782.2
2022-10-16T17:00:23.901Z,100785.9
2022-10-16T17:02:38.331Z,100788.88
2022-10-16T17:04:46.818Z,100784.83
2022-10-16T17:06:57.687Z,100787.78
2022-10-16T17:09:07.834Z,100790.59
2022-10-16T17:11:16.638Z,100788.44
2022-10-16T17:13:28.687Z,100796.58
2022-10-16T17:15:37.333Z,100795.82
2022-10-16T17:17:52.363Z,100802.75
2022-10-16T17:20:06.899Z,100800.44
2022-10-16T17:22:17.771Z,100804.06
2022-10-16T17:24:29.892Z,100808.5
2022-10-16T17:26:39.183Z,100812.16
2022-10-16T17:28:48.496Z,100812.02
2022-10-16T17:31:01.236Z,100816.97
2022-10-16T17:33:18.076Z,100816.06
2022-10-16T17:35:32.447Z,100816.61
2022-10-16T17:37:42.049Z,100813.83
2022-10-16T17:40:09.264Z,100818.3
2022-10-16T17:42:29.524Z,100828.48
2022-10-16T17:44:42.483Z,100829.95
2022-10-16T17:46:53.943Z,100837.45
2022-10-16T17:49:07.320Z,100843.33
2022-10-16T17:51:20.845Z,100845.97
2022-10-16T17:53:32.240Z,100842.55
2022-10-16T17:55:45.829Z,100842.83
2022-10-16T17:58:04.103Z,100844.91
2022-10-16T18:00:21.086Z,100847.16
2022-10-16T18:02:32.873Z,100848.45
2022-10-16T18:04:44.484Z,100853.13
2022-10-16T18:06:59.067Z,100857.91
2022-10-16T18:09:10.377Z,100857.24
2022-10-16T18:11:25.123Z,100858.91
2022-10-16T18:13:40.003Z,100856.34
2022-10-16T18:15:49.910Z,100861.36
2022-10-16T18:18:03.488Z,100860.13
2022-10-16T18:20:12.404Z,100859.02
2022-10-16T18:22:20.775Z,100863.13
2022-10-16T18:24:31.554Z,100865.3
2022-10-16T18:26:42.094Z,100866.3
2022-10-16T18:28:52.749Z,100870.89
2022-10-16T18:31:02.464Z,100871.64
2022-10-16T18:33:13.083Z,100877.5
2022-10-16T18:35:35.229Z,100883.27
2022-10-16T18:37:47.787Z,100887.47
2022-10-16T18:39:58.259Z,100883.34
2022-10-16T18:42:18.189Z,100888.77
2022-10-16T18:44:29.901Z,100896.95
2022-10-16T18:46:42.874Z,100903.62
2022-10-16T18:48:55.625Z,100901.2
2022-10-16T18:51:07.786Z,100895.78
2022-10-16T18:53:22.760Z,100894.38
2022-10-16T18:55:38.027Z,100897.95
2022-10-16T18:57:50.830Z,100896.48
2022-10-16T19:00:04.680Z,100900.88
2022-10-16T19:02:14.503Z,100898.34
2022-10-16T19:04:38.062Z,100899.53
2022-10-16T19:06:47.588Z,100904.48
2022-10-16T19:09:02.138Z,100903.32
2022-10-16T19:11:15.133Z,100913.86
2022-10-16T19:13:31.202Z,100917.08
2022-10-16T19:15:49.758Z,100915.45
2022-10-16T19:18:35.747Z,100918.12
2022-10-16T19:20:52.807Z,100924.38
2022-10-16T19:23:00.835Z,100932.17
2022-10-16T19:25:10.223Z,100934.3
2022-10-16T19:27:17.897Z,100933.91
2022-10-16T19:29:28.394Z,100933.53
2022-10-16T19:31:36.334Z,100930.31
2022-10-16T19:33:44.327Z,100930.88
2022-10-16T19:35:56.342Z,100938.39
2022-10-16T19:38:04.524Z,100944.67
2022-10-16T19:40:12.203Z,100949.67
2022-10-16T19:42:30.357Z,100954.19
2022-10-16T19:44:38.247Z,100955.02
2022-10-16T19:46:46.748Z,100959.19
2022-10-16T19:48:55.363Z,100959.92
2022-10-16T19:51:02.504Z,100961.81
2022-10-16T19:53:09.778Z,100963.98
2022-10-16T19:55:18.708Z,100963.75
2022-10-16T19:57:26.018Z,100968.69
2022-10-16T19:59:33.615Z,100970.13
2022-10-16T20:01:46.992Z,100966.81
2022-10-16T20:03:54.416Z,100967.17
2022-10-16T20:06:01.774Z,100970.33
2022-10-16T20:08:09.203Z,100972.77
2022-10-16T20:10:16.593Z,100982.39
2022-10-16T20:12:23.882Z,100985.58
2022-10-16T20:14:30.510Z,100989.5
2022-10-16T20:16:37.758Z,100993.25
2022-10-16T20:18:44.579Z,100996.09
2022-10-16T20:20:56.929Z,100992.93
2022-10-16T20:23:03.140Z,100991.73
2022-10-16T20:25:14.396Z,100992.98
2022-10-16T20:27:25.113Z,100996.19
2022-10-16T20:29:36.464Z,100999.7
2022-10-16T20:31:42.566Z,101005.52
2022-10-16T20:33:48.844Z,101009.64
2022-10-16T20:35:55.126Z,101014.66
2022-10-16T20:38:03.419Z,101015.88
2022-10-16T20:40:10.107Z,101018.69
2022-10-16T20:42:18.583Z,101022.13
2022-10-16T20:44:24.737Z,101019.4
2022-10-16T20:46:31.840Z,101019.86
2022-10-16T20:48:38.819Z,101022.2
2022-10-16T20:50:45.097Z,101025.02
2022-10-16T20:52:51.072Z,101029.92
2022-10-16T20:54:56.605Z,101029.08
2022-10-16T20:57:02.669Z,101030.39
2022-10-16T20:59:08.926Z,101028.9
2022-10-16T21:01:15.518Z,101028.02
2022-10-16T21:03:21.713Z,101028.94
2022-10-16T21:05:27.793Z,101030.37
2022-10-16T21:07:34.020Z,101029.16
2022-10-16T21:09:40.115Z,101031.83
2022-10-16T21:11:46.021Z,101033.23
2022-10-16T21:13:52.018Z,101037.57
2022-10-16T21:15:57.909Z,101041.2
2022-10-16T21:18:04.762Z,101039.77
2022-10-16T21:20:11.443Z,101033.54
2022-10-16T21:22:17.131Z,101033.9
2022-10-16T21:24:22.754Z,101031.34
2022-10-16T21:26:29.057Z,101038.44
2022-10-16T21:28:36.227Z,101040.42
2022-10-16T21:30:42.731Z,101043.86
2022-10-16T21:32:48.671Z,101041.78
2022-10-16T21:34:53.827Z,101040.2
2022-10-16T21:36:59.640Z,101039.25
2022-10-16T21:39:05.340Z,101040.02
2022-10-16T21:41:10.888Z,101041.41
2022-10-16T21:43:16.752Z,101045.52
2022-10-16T21:45:22.567Z,101048.36
2022-10-16T21:47:28.455Z,101049.21
2022-10-16T21:49:34.152Z,101051.64
2022-10-16T21:51:39.834Z,101058.13
2022-10-16T21:53:45.581Z,101061.77
2022-10-16T21:55:51.859Z,101063.77
2022-10-16T21:57:57.030Z,101072.77
2022-10-16T22:00:08.217Z,101069.13
2022-10-16T22:02:14.897Z,101068.14
2022-10-16T22:04:20.530Z,101064.74
2022-10-16T22:06:41.332Z,101064.73
2022-10-16T22:08:56.408Z,101065.23
2022-10-16T22:11:01.922Z,101068.24
2022-10-16T22:13:08.387Z,101066.98
2022-10-16T22:15:13.674Z,101063.3
2022-10-16T22:17:20.379Z,101063.98
2022-10-16T22:19:25.887Z,101068.64
2022-10-16T22:21:31.450Z,101062.82
2022-10-16T22:23:37.026Z,101060.9
2022-10-16T22:25:43.570Z,101063.3
2022-10-16T22:27:48.778Z,101064.2
2022-10-16T22:29:53.933Z,101066.33
2022-10-16T22:31:59.062Z,101067.66
2022-10-16T22:34:04.290Z,101066.39
2022-10-16T22:36:09.432Z,101072.03
2022-10-16T22:38:15.065Z,101075.66
2022-10-16T22:40:20.123Z,101080.64
2022-10-16T22:42:26.351Z,101086.71
2022-10-16T22:44:32.062Z,101085.77
2022-10-16T22:46:37.286Z,101091.52
2022-10-16T22:48:42.632Z,101096.21
2022-10-16T22:50:47.850Z,101100.63
2022-10-16T22:52:53.166Z,101103.63
2022-10-16T22:54:58.392Z,101107.09
2022-10-16T22:57:04.203Z,101107.97
2022-10-16T22:59:09.348Z,101108.02
2022-10-16T23:01:14.626Z,101109.63
2022-10-16T23:03:19.987Z,101112.14
2022-10-16T23:05:25.561Z,101109.83
2022-10-16T23:07:31.921Z,101113.38
2022-10-16T23:09:37.603Z,101119.05
2022-10-16T23:11:42.677Z,101124.56
2022-10-16T23:13:47.870Z,101124.2
2022-10-16T23:15:53.309Z,101123.42
2022-10-16T23:17:58.693Z,101126.82
2022-10-16T23:20:03.913Z,101125.38
2022-10-16T23:22:09.570Z,101123.92
2022-10-16T23:24:14.869Z,101121.83
2022-10-16T23:26:20.460Z,101124.88
2022-10-16T23:28:25.829Z,101123.7
2022-10-16T23:30:31.135Z,101123.97
2022-10-16T23:32:36.995Z,101125.92
2022-10-16T23:34:42.210Z,101128.55
2022-10-16T23:36:47.257Z,101126.02
2022-10-16T23:38:52.673Z,101130.91
2022-10-16T23:40:57.987Z,101132.5
2022-10-16T23:43:03.376Z,101133.39
2022-10-16T23:45:08.634Z,101135.2
2022-10-16T23:47:14.269Z,101145.02
2022-10-16T23:49:20.389Z,101148.44
2022-10-16T23:51:25.761Z,101148.3
2022-10-16T23:53:30.934Z,101154
2022-10-16T23:55:36.177Z,101160.34
2022-10-16T23:57:41.572Z,101165.14
2022-10-16T23:59:46.712Z,101166.55
